Decoded Metar for GEML (MELILLA in SPAIN) (IATA:MLN) | Meteo·Mobile Aviation Weather
aviador You're here:

GEML Decoded Metar

MELILLA in SPAIN
Report Time2018-09-21 09:00:00
UTC Time2018-09-21 09:30:23
Flight Rules vfr VFR
Wind100° at 05 kt
W.Decomp.*RWY 15: 3.3 kt HW 3.8 kt LCW
W.Rank100° ranks 11
Current wind is below 100° avg. (5.5)
Visibility9999 m
Phenomena:N/A
Clouds:Few 013 Hf
Scattered 015 Hf
Expected CloudBase > 2,000 ft AGL from Temp-Dew spread
CeilingNone
Temp26°C (ISA +11)
Dew Point21°C (74% RH)
QNH1019 hPa
Density Alt1,617 ft
Elevation180 ft
Report Wrong Elevation
Raw Report
GEML 210900Z 10005KT 050V140 9999 FEW013 SCT015 26/21 Q1019=

Extra information for GEML:More info

Metar Taf Metar & Taf Last 4 Metars F.Rules Stats Wind Profile Meteogram Temp Stats Airport Information Weather charts Add Link Nearby VenuesMetar ALERT Operation Metar Decoded Social comments